Pamelia, New York
Current Conditions -  °F | °C
As of 10:58 PM on Thursday 18 Dec 2014 (Local Time) from KGTB Reporting Station
Overcast Overcast  
Wind Chill: -8°   Ceiling: 900
Heat Index: -4°   Visibility: 10mi
Dew Point: -6°   Wind: 5mph
Humidity: 91%   Direction: 320°NW
Pressure: 29.99"   Gusts: NA
Location:  44.0981°N, 75.8331°W
Report Text: KGTB 190358Z AUTO 32004KT 10SM OVC009 M04/M06 A2999 RMK AO2 RAE0305 OVC V BKN SLPNO P0000 T10431056
Loading
Personal Weather Stations






























Interactive Weather Map New forecast layout! Learn more

10-Day Weather Forecast

Advertisements
Track Severe Weather on mobile